sensor_id;sensor_type;location;lat;lon;timestamp;P1;durP1;ratioP1;P2;durP2;ratioP2
31676;SDS011;18385;51.572;6.578;2023-12-20T00:01:22;13.13;;;5.50;;
31676;SDS011;18385;51.572;6.578;2023-12-20T00:03:47;17.27;;;5.30;;
31676;SDS011;18385;51.572;6.578;2023-12-20T00:06:13;14.55;;;5.10;;
31676;SDS011;18385;51.572;6.578;2023-12-20T00:08:39;19.73;;;5.25;;
31676;SDS011;18385;51.572;6.578;2023-12-20T00:11:05;12.32;;;4.40;;
31676;SDS011;18385;51.572;6.578;2023-12-20T00:13:30;19.10;;;6.22;;
31676;SDS011;18385;51.572;6.578;2023-12-20T00:15:56;18.67;;;5.45;;
31676;SDS011;18385;51.572;6.578;2023-12-20T00:18:22;13.70;;;5.25;;
31676;SDS011;18385;51.572;6.578;2023-12-20T00:20:48;16.17;;;4.25;;
31676;SDS011;18385;51.572;6.578;2023-12-20T00:23:13;12.85;;;4.10;;
31676;SDS011;18385;51.572;6.578;2023-12-20T00:25:39;12.20;;;4.82;;
31676;SDS011;18385;51.572;6.578;2023-12-20T00:28:05;14.95;;;4.13;;
31676;SDS011;18385;51.572;6.578;2023-12-20T00:30:31;18.10;;;5.15;;
31676;SDS011;18385;51.572;6.578;2023-12-20T00:32:57;11.00;;;4.22;;
31676;SDS011;18385;51.572;6.578;2023-12-20T00:35:23;16.95;;;4.95;;
31676;SDS011;18385;51.572;6.578;2023-12-20T00:37:49;14.20;;;4.97;;
31676;SDS011;18385;51.572;6.578;2023-12-20T00:40:14;13.90;;;4.47;;
31676;SDS011;18385;51.572;6.578;2023-12-20T00:42:40;15.30;;;4.80;;
31676;SDS011;18385;51.572;6.578;2023-12-20T00:45:06;15.68;;;4.22;;
31676;SDS011;18385;51.572;6.578;2023-12-20T00:47:32;11.43;;;3.95;;
31676;SDS011;18385;51.572;6.578;2023-12-20T00:49:58;14.02;;;3.35;;
31676;SDS011;18385;51.572;6.578;2023-12-20T00:52:24;10.65;;;3.50;;
31676;SDS011;18385;51.572;6.578;2023-12-20T00:54:50;10.43;;;3.72;;
31676;SDS011;18385;51.572;6.578;2023-12-20T00:57:16;12.95;;;3.65;;
31676;SDS011;18385;51.572;6.578;2023-12-20T00:59:41;10.43;;;3.17;;
31676;SDS011;18385;51.572;6.578;2023-12-20T01:02:07;15.73;;;3.00;;
31676;SDS011;18385;51.572;6.578;2023-12-20T01:04:34;13.00;;;4.97;;
31676;SDS011;18385;51.572;6.578;2023-12-20T01:06:59;9.98;;;3.40;;
31676;SDS011;18385;51.572;6.578;2023-12-20T01:09:25;8.00;;;2.70;;
31676;SDS011;18385;51.572;6.578;2023-12-20T01:11:54;13.00;;;3.83;;
31676;SDS011;18385;51.572;6.578;2023-12-20T01:14:20;16.98;;;4.50;;
31676;SDS011;18385;51.572;6.578;2023-12-20T01:16:45;18.27;;;5.45;;
31676;SDS011;18385;51.572;6.578;2023-12-20T01:19:12;12.85;;;3.15;;
31676;SDS011;18385;51.572;6.578;2023-12-20T01:21:39;10.48;;;3.53;;
31676;SDS011;18385;51.572;6.578;2023-12-20T01:24:05;10.45;;;4.57;;
31676;SDS011;18385;51.572;6.578;2023-12-20T01:26:31;12.35;;;3.53;;
31676;SDS011;18385;51.572;6.578;2023-12-20T01:28:57;14.07;;;4.05;;
31676;SDS011;18385;51.572;6.578;2023-12-20T01:31:22;9.57;;;2.42;;
31676;SDS011;18385;51.572;6.578;2023-12-20T01:33:48;13.07;;;3.20;;
31676;SDS011;18385;51.572;6.578;2023-12-20T01:36:14;9.63;;;2.80;;
31676;SDS011;18385;51.572;6.578;2023-12-20T01:38:40;13.15;;;3.15;;
31676;SDS011;18385;51.572;6.578;2023-12-20T01:41:05;13.27;;;3.03;;
31676;SDS011;18385;51.572;6.578;2023-12-20T01:43:31;8.10;;;2.80;;
31676;SDS011;18385;51.572;6.578;2023-12-20T01:45:57;11.65;;;2.97;;
31676;SDS011;18385;51.572;6.578;2023-12-20T01:48:23;13.43;;;3.05;;
31676;SDS011;18385;51.572;6.578;2023-12-20T01:50:50;10.93;;;3.00;;
31676;SDS011;18385;51.572;6.578;2023-12-20T01:53:17;10.48;;;3.10;;
31676;SDS011;18385;51.572;6.578;2023-12-20T01:55:45;8.18;;;2.80;;
31676;SDS011;18385;51.572;6.578;2023-12-20T01:58:12;14.85;;;3.22;;
31676;SDS011;18385;51.572;6.578;2023-12-20T02:00:39;12.40;;;4.65;;
31676;SDS011;18385;51.572;6.578;2023-12-20T02:03:05;13.88;;;4.15;;
31676;SDS011;18385;51.572;6.578;2023-12-20T02:05:31;16.10;;;2.85;;
31676;SDS011;18385;51.572;6.578;2023-12-20T02:07:58;7.97;;;3.45;;
31676;SDS011;18385;51.572;6.578;2023-12-20T02:10:24;10.60;;;3.13;;
31676;SDS011;18385;51.572;6.578;2023-12-20T02:12:50;10.55;;;3.10;;
31676;SDS011;18385;51.572;6.578;2023-12-20T02:15:16;14.68;;;4.13;;
31676;SDS011;18385;51.572;6.578;2023-12-20T02:17:42;12.07;;;3.58;;
31676;SDS011;18385;51.572;6.578;2023-12-20T02:20:08;11.20;;;3.17;;
31676;SDS011;18385;51.572;6.578;2023-12-20T02:22:34;9.32;;;3.65;;
31676;SDS011;18385;51.572;6.578;2023-12-20T02:25:00;15.18;;;5.10;;
31676;SDS011;18385;51.572;6.578;2023-12-20T02:27:26;17.52;;;4.53;;
31676;SDS011;18385;51.572;6.578;2023-12-20T02:29:52;9.68;;;3.40;;
31676;SDS011;18385;51.572;6.578;2023-12-20T02:32:18;15.85;;;4.10;;
31676;SDS011;18385;51.572;6.578;2023-12-20T02:34:46;10.13;;;3.50;;
31676;SDS011;18385;51.572;6.578;2023-12-20T02:37:13;7.68;;;2.90;;
31676;SDS011;18385;51.572;6.578;2023-12-20T02:39:38;11.38;;;3.13;;
31676;SDS011;18385;51.572;6.578;2023-12-20T02:42:04;15.60;;;3.40;;
31676;SDS011;18385;51.572;6.578;2023-12-20T02:44:33;9.90;;;3.10;;
31676;SDS011;18385;51.572;6.578;2023-12-20T02:46:59;9.90;;;2.85;;
31676;SDS011;18385;51.572;6.578;2023-12-20T02:49:24;12.38;;;3.33;;
31676;SDS011;18385;51.572;6.578;2023-12-20T02:51:50;7.70;;;2.53;;
31676;SDS011;18385;51.572;6.578;2023-12-20T02:54:16;15.77;;;3.30;;
31676;SDS011;18385;51.572;6.578;2023-12-20T02:56:41;10.35;;;2.58;;
31676;SDS011;18385;51.572;6.578;2023-12-20T02:59:07;11.02;;;2.38;;
31676;SDS011;18385;51.572;6.578;2023-12-20T03:01:34;12.63;;;2.60;;
31676;SDS011;18385;51.572;6.578;2023-12-20T03:04:00;8.73;;;2.40;;
31676;SDS011;18385;51.572;6.578;2023-12-20T03:06:26;11.82;;;2.08;;
31676;SDS011;18385;51.572;6.578;2023-12-20T03:08:52;11.18;;;2.25;;
31676;SDS011;18385;51.572;6.578;2023-12-20T03:11:17;10.50;;;1.85;;
31676;SDS011;18385;51.572;6.578;2023-12-20T03:13:43;9.68;;;1.92;;
31676;SDS011;18385;51.572;6.578;2023-12-20T03:16:09;9.90;;;2.78;;
31676;SDS011;18385;51.572;6.578;2023-12-20T03:18:35;11.50;;;2.33;;
31676;SDS011;18385;51.572;6.578;2023-12-20T03:21:01;5.70;;;1.45;;
31676;SDS011;18385;51.572;6.578;2023-12-20T03:23:27;8.73;;;1.55;;
31676;SDS011;18385;51.572;6.578;2023-12-20T03:25:55;10.25;;;2.45;;
31676;SDS011;18385;51.572;6.578;2023-12-20T03:28:21;7.60;;;1.90;;
31676;SDS011;18385;51.572;6.578;2023-12-20T03:30:48;7.03;;;1.90;;
31676;SDS011;18385;51.572;6.578;2023-12-20T03:33:14;8.25;;;1.45;;
31676;SDS011;18385;51.572;6.578;2023-12-20T03:35:39;9.60;;;1.35;;
31676;SDS011;18385;51.572;6.578;2023-12-20T03:38:05;13.02;;;2.88;;
31676;SDS011;18385;51.572;6.578;2023-12-20T03:40:31;13.00;;;2.22;;
31676;SDS011;18385;51.572;6.578;2023-12-20T03:42:56;10.23;;;1.58;;
31676;SDS011;18385;51.572;6.578;2023-12-20T03:45:22;12.65;;;2.03;;
31676;SDS011;18385;51.572;6.578;2023-12-20T03:47:47;9.60;;;1.58;;
31676;SDS011;18385;51.572;6.578;2023-12-20T03:50:13;12.00;;;2.08;;
31676;SDS011;18385;51.572;6.578;2023-12-20T03:52:39;8.15;;;1.30;;
31676;SDS011;18385;51.572;6.578;2023-12-20T03:55:05;7.18;;;1.30;;
31676;SDS011;18385;51.572;6.578;2023-12-20T03:57:31;15.48;;;1.63;;
31676;SDS011;18385;51.572;6.578;2023-12-20T03:59:56;15.98;;;1.55;;
31676;SDS011;18385;51.572;6.578;2023-12-20T04:02:22;11.77;;;2.08;;
31676;SDS011;18385;51.572;6.578;2023-12-20T04:04:47;13.95;;;2.63;;
31676;SDS011;18385;51.572;6.578;2023-12-20T04:07:13;9.95;;;1.58;;
31676;SDS011;18385;51.572;6.578;2023-12-20T04:09:40;15.88;;;1.95;;
31676;SDS011;18385;51.572;6.578;2023-12-20T04:12:06;13.95;;;2.40;;
31676;SDS011;18385;51.572;6.578;2023-12-20T04:14:32;11.25;;;2.13;;
31676;SDS011;18385;51.572;6.578;2023-12-20T04:16:58;11.65;;;2.90;;
31676;SDS011;18385;51.572;6.578;2023-12-20T04:19:23;9.60;;;1.85;;
31676;SDS011;18385;51.572;6.578;2023-12-20T04:21:49;15.52;;;1.80;;
31676;SDS011;18385;51.572;6.578;2023-12-20T04:24:15;7.03;;;1.20;;
31676;SDS011;18385;51.572;6.578;2023-12-20T04:26:41;8.10;;;1.80;;
31676;SDS011;18385;51.572;6.578;2023-12-20T04:29:06;10.27;;;2.05;;
31676;SDS011;18385;51.572;6.578;2023-12-20T04:31:32;8.50;;;1.95;;
31676;SDS011;18385;51.572;6.578;2023-12-20T04:33:58;7.45;;;1.52;;
31676;SDS011;18385;51.572;6.578;2023-12-20T04:36:23;15.20;;;2.35;;
31676;SDS011;18385;51.572;6.578;2023-12-20T04:38:53;14.07;;;2.13;;
31676;SDS011;18385;51.572;6.578;2023-12-20T04:41:18;14.65;;;2.75;;
31676;SDS011;18385;51.572;6.578;2023-12-20T04:43:44;6.32;;;1.40;;
31676;SDS011;18385;51.572;6.578;2023-12-20T04:46:10;9.85;;;1.55;;
31676;SDS011;18385;51.572;6.578;2023-12-20T04:48:36;7.70;;;2.80;;
31676;SDS011;18385;51.572;6.578;2023-12-20T04:51:01;9.45;;;2.13;;
31676;SDS011;18385;51.572;6.578;2023-12-20T04:53:27;7.28;;;1.77;;
31676;SDS011;18385;51.572;6.578;2023-12-20T04:55:53;12.27;;;2.95;;
31676;SDS011;18385;51.572;6.578;2023-12-20T04:58:18;8.35;;;1.73;;
31676;SDS011;18385;51.572;6.578;2023-12-20T05:00:44;11.48;;;2.83;;
31676;SDS011;18385;51.572;6.578;2023-12-20T05:03:10;7.82;;;2.08;;
31676;SDS011;18385;51.572;6.578;2023-12-20T05:05:36;8.70;;;2.05;;
31676;SDS011;18385;51.572;6.578;2023-12-20T05:08:01;7.88;;;1.83;;
31676;SDS011;18385;51.572;6.578;2023-12-20T05:10:27;10.32;;;2.47;;
31676;SDS011;18385;51.572;6.578;2023-12-20T05:12:53;13.18;;;2.80;;
31676;SDS011;18385;51.572;6.578;2023-12-20T05:15:18;7.80;;;2.05;;
31676;SDS011;18385;51.572;6.578;2023-12-20T05:17:44;8.02;;;1.88;;
31676;SDS011;18385;51.572;6.578;2023-12-20T05:20:10;15.68;;;2.67;;
31676;SDS011;18385;51.572;6.578;2023-12-20T05:22:36;10.60;;;2.50;;
31676;SDS011;18385;51.572;6.578;2023-12-20T05:25:01;12.85;;;2.17;;
31676;SDS011;18385;51.572;6.578;2023-12-20T05:27:27;11.15;;;3.10;;
31676;SDS011;18385;51.572;6.578;2023-12-20T05:29:53;21.15;;;2.95;;
31676;SDS011;18385;51.572;6.578;2023-12-20T05:32:22;16.17;;;2.80;;
31676;SDS011;18385;51.572;6.578;2023-12-20T05:34:48;17.13;;;4.07;;
31676;SDS011;18385;51.572;6.578;2023-12-20T05:37:14;14.02;;;2.67;;
31676;SDS011;18385;51.572;6.578;2023-12-20T05:39:39;15.02;;;3.40;;
31676;SDS011;18385;51.572;6.578;2023-12-20T05:42:05;15.18;;;2.47;;
31676;SDS011;18385;51.572;6.578;2023-12-20T05:44:31;8.90;;;2.63;;
31676;SDS011;18385;51.572;6.578;2023-12-20T05:46:56;11.00;;;1.90;;
31676;SDS011;18385;51.572;6.578;2023-12-20T05:49:22;10.40;;;2.10;;
31676;SDS011;18385;51.572;6.578;2023-12-20T05:51:48;12.98;;;3.35;;
31676;SDS011;18385;51.572;6.578;2023-12-20T05:54:15;14.13;;;3.13;;
31676;SDS011;18385;51.572;6.578;2023-12-20T05:56:41;15.15;;;2.40;;
31676;SDS011;18385;51.572;6.578;2023-12-20T05:59:07;12.95;;;2.63;;
31676;SDS011;18385;51.572;6.578;2023-12-20T06:01:33;14.85;;;3.25;;
31676;SDS011;18385;51.572;6.578;2023-12-20T06:03:58;20.15;;;3.63;;
31676;SDS011;18385;51.572;6.578;2023-12-20T06:06:24;17.05;;;2.90;;
31676;SDS011;18385;51.572;6.578;2023-12-20T06:08:50;13.38;;;2.42;;
31676;SDS011;18385;51.572;6.578;2023-12-20T06:11:16;19.83;;;4.72;;
31676;SDS011;18385;51.572;6.578;2023-12-20T06:13:41;12.30;;;2.50;;
31676;SDS011;18385;51.572;6.578;2023-12-20T06:16:07;12.15;;;2.88;;
31676;SDS011;18385;51.572;6.578;2023-12-20T06:18:33;13.45;;;2.40;;
31676;SDS011;18385;51.572;6.578;2023-12-20T06:20:58;10.45;;;2.80;;
31676;SDS011;18385;51.572;6.578;2023-12-20T06:23:24;17.95;;;2.67;;
31676;SDS011;18385;51.572;6.578;2023-12-20T06:25:50;10.05;;;3.10;;
31676;SDS011;18385;51.572;6.578;2023-12-20T06:28:15;10.85;;;2.38;;
31676;SDS011;18385;51.572;6.578;2023-12-20T06:30:41;10.88;;;2.60;;
31676;SDS011;18385;51.572;6.578;2023-12-20T06:33:07;12.32;;;2.90;;
31676;SDS011;18385;51.572;6.578;2023-12-20T06:35:34;14.85;;;2.92;;
31676;SDS011;18385;51.572;6.578;2023-12-20T06:38:00;11.93;;;2.20;;
31676;SDS011;18385;51.572;6.578;2023-12-20T06:40:27;12.75;;;3.03;;
31676;SDS011;18385;51.572;6.578;2023-12-20T06:42:53;8.32;;;1.98;;
31676;SDS011;18385;51.572;6.578;2023-12-20T06:45:18;18.27;;;3.08;;
31676;SDS011;18385;51.572;6.578;2023-12-20T06:47:44;17.08;;;3.13;;
31676;SDS011;18385;51.572;6.578;2023-12-20T06:50:10;14.38;;;3.25;;
31676;SDS011;18385;51.572;6.578;2023-12-20T06:52:35;11.55;;;2.90;;
31676;SDS011;18385;51.572;6.578;2023-12-20T06:55:01;9.60;;;2.10;;
31676;SDS011;18385;51.572;6.578;2023-12-20T06:57:27;12.75;;;2.28;;
31676;SDS011;18385;51.572;6.578;2023-12-20T06:59:52;8.48;;;1.85;;
31676;SDS011;18385;51.572;6.578;2023-12-20T07:02:18;15.18;;;2.83;;
31676;SDS011;18385;51.572;6.578;2023-12-20T07:04:44;11.50;;;2.92;;
31676;SDS011;18385;51.572;6.578;2023-12-20T07:07:09;9.52;;;2.72;;
31676;SDS011;18385;51.572;6.578;2023-12-20T07:09:35;13.48;;;2.38;;
31676;SDS011;18385;51.572;6.578;2023-12-20T07:12:01;9.07;;;1.88;;
31676;SDS011;18385;51.572;6.578;2023-12-20T07:14:27;22.67;;;3.33;;
31676;SDS011;18385;51.572;6.578;2023-12-20T07:16:54;13.88;;;2.33;;
31676;SDS011;18385;51.572;6.578;2023-12-20T07:19:20;13.93;;;2.33;;
31676;SDS011;18385;51.572;6.578;2023-12-20T07:21:45;8.90;;;2.53;;
31676;SDS011;18385;51.572;6.578;2023-12-20T07:24:11;19.60;;;3.17;;
31676;SDS011;18385;51.572;6.578;2023-12-20T07:26:37;12.95;;;2.42;;
31676;SDS011;18385;51.572;6.578;2023-12-20T07:29:03;16.38;;;2.97;;
31676;SDS011;18385;51.572;6.578;2023-12-20T07:31:29;9.70;;;2.53;;
31676;SDS011;18385;51.572;6.578;2023-12-20T07:33:55;9.65;;;2.72;;
31676;SDS011;18385;51.572;6.578;2023-12-20T07:36:21;13.07;;;3.08;;
31676;SDS011;18385;51.572;6.578;2023-12-20T07:38:47;10.18;;;2.50;;
31676;SDS011;18385;51.572;6.578;2023-12-20T07:41:13;10.45;;;3.20;;
31676;SDS011;18385;51.572;6.578;2023-12-20T07:43:40;12.93;;;3.35;;
31676;SDS011;18385;51.572;6.578;2023-12-20T07:46:07;10.73;;;2.33;;
31676;SDS011;18385;51.572;6.578;2023-12-20T07:48:37;8.32;;;2.15;;
31676;SDS011;18385;51.572;6.578;2023-12-20T07:51:06;10.60;;;1.80;;
31676;SDS011;18385;51.572;6.578;2023-12-20T07:53:33;8.95;;;2.55;;
31676;SDS011;18385;51.572;6.578;2023-12-20T07:56:00;9.88;;;2.10;;
31676;SDS011;18385;51.572;6.578;2023-12-20T07:58:25;14.05;;;2.95;;
31676;SDS011;18385;51.572;6.578;2023-12-20T08:00:51;18.70;;;2.55;;
31676;SDS011;18385;51.572;6.578;2023-12-20T08:03:17;11.20;;;2.17;;
31676;SDS011;18385;51.572;6.578;2023-12-20T08:05:42;10.63;;;1.90;;
31676;SDS011;18385;51.572;6.578;2023-12-20T08:08:08;12.27;;;2.05;;
31676;SDS011;18385;51.572;6.578;2023-12-20T08:10:33;10.65;;;2.38;;
31676;SDS011;18385;51.572;6.578;2023-12-20T08:12:59;16.42;;;2.22;;
31676;SDS011;18385;51.572;6.578;2023-12-20T08:15:25;14.48;;;2.90;;
31676;SDS011;18385;51.572;6.578;2023-12-20T08:17:50;19.83;;;2.65;;
31676;SDS011;18385;51.572;6.578;2023-12-20T08:20:16;10.60;;;1.52;;
31676;SDS011;18385;51.572;6.578;2023-12-20T08:22:42;8.60;;;1.80;;
31676;SDS011;18385;51.572;6.578;2023-12-20T08:25:08;4.28;;;1.10;;
31676;SDS011;18385;51.572;6.578;2023-12-20T08:27:36;8.10;;;2.65;;
31676;SDS011;18385;51.572;6.578;2023-12-20T08:30:05;7.43;;;2.30;;
31676;SDS011;18385;51.572;6.578;2023-12-20T08:32:31;12.18;;;2.08;;
31676;SDS011;18385;51.572;6.578;2023-12-20T08:34:57;8.27;;;1.75;;
31676;SDS011;18385;51.572;6.578;2023-12-20T08:37:23;13.35;;;3.17;;
31676;SDS011;18385;51.572;6.578;2023-12-20T08:39:49;8.30;;;1.42;;
31676;SDS011;18385;51.572;6.578;2023-12-20T08:42:14;11.65;;;2.50;;
31676;SDS011;18385;51.572;6.578;2023-12-20T08:44:40;14.48;;;1.48;;
31676;SDS011;18385;51.572;6.578;2023-12-20T08:47:06;13.10;;;2.15;;
31676;SDS011;18385;51.572;6.578;2023-12-20T08:49:32;15.45;;;2.30;;
31676;SDS011;18385;51.572;6.578;2023-12-20T08:51:58;11.70;;;1.80;;
31676;SDS011;18385;51.572;6.578;2023-12-20T08:54:24;8.80;;;2.00;;
31676;SDS011;18385;51.572;6.578;2023-12-20T08:56:49;11.65;;;2.83;;
31676;SDS011;18385;51.572;6.578;2023-12-20T08:59:15;9.38;;;1.65;;
31676;SDS011;18385;51.572;6.578;2023-12-20T09:01:41;12.07;;;2.42;;
31676;SDS011;18385;51.572;6.578;2023-12-20T09:04:06;9.27;;;1.52;;
31676;SDS011;18385;51.572;6.578;2023-12-20T09:06:32;11.80;;;1.95;;
31676;SDS011;18385;51.572;6.578;2023-12-20T09:08:58;9.45;;;2.10;;
31676;SDS011;18385;51.572;6.578;2023-12-20T09:11:24;14.25;;;2.08;;
31676;SDS011;18385;51.572;6.578;2023-12-20T09:13:49;11.73;;;1.77;;
31676;SDS011;18385;51.572;6.578;2023-12-20T09:16:15;9.40;;;2.78;;
31676;SDS011;18385;51.572;6.578;2023-12-20T09:18:41;8.35;;;1.48;;
31676;SDS011;18385;51.572;6.578;2023-12-20T09:21:07;8.15;;;2.33;;
31676;SDS011;18385;51.572;6.578;2023-12-20T09:23:33;10.98;;;2.88;;
31676;SDS011;18385;51.572;6.578;2023-12-20T09:25:58;8.77;;;1.85;;
31676;SDS011;18385;51.572;6.578;2023-12-20T09:28:24;12.60;;;2.80;;
31676;SDS011;18385;51.572;6.578;2023-12-20T09:30:50;12.05;;;1.58;;
31676;SDS011;18385;51.572;6.578;2023-12-20T09:33:15;13.57;;;1.60;;
31676;SDS011;18385;51.572;6.578;2023-12-20T09:35:41;19.80;;;1.88;;
31676;SDS011;18385;51.572;6.578;2023-12-20T09:38:07;11.73;;;2.05;;
31676;SDS011;18385;51.572;6.578;2023-12-20T09:40:33;8.07;;;1.95;;
31676;SDS011;18385;51.572;6.578;2023-12-20T09:43:04;10.65;;;2.50;;
31676;SDS011;18385;51.572;6.578;2023-12-20T09:45:36;16.35;;;2.50;;
31676;SDS011;18385;51.572;6.578;2023-12-20T09:48:02;13.95;;;2.65;;
31676;SDS011;18385;51.572;6.578;2023-12-20T09:50:30;10.75;;;2.13;;
31676;SDS011;18385;51.572;6.578;2023-12-20T09:52:57;7.50;;;1.40;;
31676;SDS011;18385;51.572;6.578;2023-12-20T09:55:25;13.23;;;1.88;;
31676;SDS011;18385;51.572;6.578;2023-12-20T09:57:53;7.00;;;1.50;;
31676;SDS011;18385;51.572;6.578;2023-12-20T10:00:19;8.45;;;1.33;;
31676;SDS011;18385;51.572;6.578;2023-12-20T10:02:57;14.32;;;2.45;;
31676;SDS011;18385;51.572;6.578;2023-12-20T10:05:28;13.80;;;2.45;;
31676;SDS011;18385;51.572;6.578;2023-12-20T10:07:55;10.68;;;2.55;;
31676;SDS011;18385;51.572;6.578;2023-12-20T10:10:21;11.80;;;2.15;;
31676;SDS011;18385;51.572;6.578;2023-12-20T10:15:29;7.57;;;1.70;;
31676;SDS011;18385;51.572;6.578;2023-12-20T10:17:56;7.10;;;1.60;;
31676;SDS011;18385;51.572;6.578;2023-12-20T10:20:22;11.85;;;2.35;;
31676;SDS011;18385;51.572;6.578;2023-12-20T10:22:47;13.23;;;2.63;;
31676;SDS011;18385;51.572;6.578;2023-12-20T10:25:14;16.83;;;2.72;;
31676;SDS011;18385;51.572;6.578;2023-12-20T10:27:39;14.93;;;2.13;;
31676;SDS011;18385;51.572;6.578;2023-12-20T10:30:05;6.90;;;1.88;;
31676;SDS011;18385;51.572;6.578;2023-12-20T10:32:31;15.07;;;2.53;;
31676;SDS011;18385;51.572;6.578;2023-12-20T10:34:57;8.52;;;1.38;;
31676;SDS011;18385;51.572;6.578;2023-12-20T10:37:24;15.00;;;2.05;;
31676;SDS011;18385;51.572;6.578;2023-12-20T10:39:51;9.32;;;1.40;;
31676;SDS011;18385;51.572;6.578;2023-12-20T10:42:21;9.32;;;2.03;;
31676;SDS011;18385;51.572;6.578;2023-12-20T10:44:48;8.90;;;1.73;;
31676;SDS011;18385;51.572;6.578;2023-12-20T10:47:15;10.60;;;2.22;;
31676;SDS011;18385;51.572;6.578;2023-12-20T10:49:42;12.60;;;2.25;;
31676;SDS011;18385;51.572;6.578;2023-12-20T10:52:09;12.63;;;2.25;;
31676;SDS011;18385;51.572;6.578;2023-12-20T10:54:38;9.45;;;1.17;;
31676;SDS011;18385;51.572;6.578;2023-12-20T10:57:05;7.40;;;2.05;;
31676;SDS011;18385;51.572;6.578;2023-12-20T10:59:36;6.32;;;2.05;;
31676;SDS011;18385;51.572;6.578;2023-12-20T11:02:03;8.32;;;1.92;;
31676;SDS011;18385;51.572;6.578;2023-12-20T11:04:36;11.32;;;2.60;;
31676;SDS011;18385;51.572;6.578;2023-12-20T11:07:23;8.77;;;1.92;;
31676;SDS011;18385;51.572;6.578;2023-12-20T11:09:58;6.00;;;2.03;;
31676;SDS011;18385;51.572;6.578;2023-12-20T11:15:09;12.32;;;1.98;;
31676;SDS011;18385;51.572;6.578;2023-12-20T11:17:35;9.95;;;1.85;;
31676;SDS011;18385;51.572;6.578;2023-12-20T11:20:06;3.20;;;1.13;;
31676;SDS011;18385;51.572;6.578;2023-12-20T11:22:35;8.57;;;2.05;;
31676;SDS011;18385;51.572;6.578;2023-12-20T11:25:11;9.07;;;2.15;;
31676;SDS011;18385;51.572;6.578;2023-12-20T11:27:40;10.05;;;2.00;;
31676;SDS011;18385;51.572;6.578;2023-12-20T11:30:08;9.13;;;2.25;;
31676;SDS011;18385;51.572;6.578;2023-12-20T11:32:34;10.80;;;2.05;;
31676;SDS011;18385;51.572;6.578;2023-12-20T11:35:16;22.27;;;2.53;;
31676;SDS011;18385;51.572;6.578;2023-12-20T11:37:43;6.63;;;1.60;;
31676;SDS011;18385;51.572;6.578;2023-12-20T11:40:13;12.25;;;2.00;;
31676;SDS011;18385;51.572;6.578;2023-12-20T11:42:40;13.48;;;3.50;;
31676;SDS011;18385;51.572;6.578;2023-12-20T11:45:11;11.05;;;1.50;;
31676;SDS011;18385;51.572;6.578;2023-12-20T11:47:40;16.30;;;3.20;;
31676;SDS011;18385;51.572;6.578;2023-12-20T11:50:07;7.50;;;1.92;;
31676;SDS011;18385;51.572;6.578;2023-12-20T11:52:33;8.13;;;1.95;;
31676;SDS011;18385;51.572;6.578;2023-12-20T11:55:00;16.88;;;2.70;;
31676;SDS011;18385;51.572;6.578;2023-12-20T11:57:25;9.15;;;1.88;;
31676;SDS011;18385;51.572;6.578;2023-12-20T11:59:51;6.30;;;1.55;;
31676;SDS011;18385;51.572;6.578;2023-12-20T12:02:17;8.15;;;2.30;;
31676;SDS011;18385;51.572;6.578;2023-12-20T12:04:42;12.35;;;2.53;;
31676;SDS011;18385;51.572;6.578;2023-12-20T12:07:08;15.55;;;2.60;;
31676;SDS011;18385;51.572;6.578;2023-12-20T12:09:34;10.40;;;2.33;;
31676;SDS011;18385;51.572;6.578;2023-12-20T12:12:00;15.07;;;3.00;;
31676;SDS011;18385;51.572;6.578;2023-12-20T12:14:26;8.30;;;1.58;;
31676;SDS011;18385;51.572;6.578;2023-12-20T12:16:52;10.00;;;2.75;;
31676;SDS011;18385;51.572;6.578;2023-12-20T12:19:21;10.23;;;2.10;;
31676;SDS011;18385;51.572;6.578;2023-12-20T12:21:49;12.27;;;1.80;;
31676;SDS011;18385;51.572;6.578;2023-12-20T12:24:45;9.70;;;3.53;;
31676;SDS011;18385;51.572;6.578;2023-12-20T12:27:12;16.83;;;2.80;;
31676;SDS011;18385;51.572;6.578;2023-12-20T12:29:38;10.40;;;2.10;;
31676;SDS011;18385;51.572;6.578;2023-12-20T12:32:05;11.73;;;2.17;;
31676;SDS011;18385;51.572;6.578;2023-12-20T12:34:32;8.80;;;1.67;;
31676;SDS011;18385;51.572;6.578;2023-12-20T12:36:59;11.55;;;2.15;;
31676;SDS011;18385;51.572;6.578;2023-12-20T12:39:25;13.43;;;2.20;;
31676;SDS011;18385;51.572;6.578;2023-12-20T12:41:51;11.75;;;1.92;;
31676;SDS011;18385;51.572;6.578;2023-12-20T12:44:17;11.57;;;2.28;;
31676;SDS011;18385;51.572;6.578;2023-12-20T12:46:44;13.82;;;2.85;;
31676;SDS011;18385;51.572;6.578;2023-12-20T12:49:10;4.80;;;1.63;;
31676;SDS011;18385;51.572;6.578;2023-12-20T12:51:36;9.48;;;2.00;;
31676;SDS011;18385;51.572;6.578;2023-12-20T12:54:02;14.77;;;2.33;;
31676;SDS011;18385;51.572;6.578;2023-12-20T12:56:28;16.27;;;2.65;;
31676;SDS011;18385;51.572;6.578;2023-12-20T12:58:54;10.38;;;2.00;;
31676;SDS011;18385;51.572;6.578;2023-12-20T13:01:20;7.80;;;2.17;;
31676;SDS011;18385;51.572;6.578;2023-12-20T13:03:46;10.30;;;2.40;;
31676;SDS011;18385;51.572;6.578;2023-12-20T13:06:12;9.48;;;1.85;;
31676;SDS011;18385;51.572;6.578;2023-12-20T13:08:38;8.32;;;1.95;;
31676;SDS011;18385;51.572;6.578;2023-12-20T13:11:04;9.82;;;2.22;;
31676;SDS011;18385;51.572;6.578;2023-12-20T13:13:30;14.13;;;2.20;;
31676;SDS011;18385;51.572;6.578;2023-12-20T13:15:56;6.35;;;1.80;;
31676;SDS011;18385;51.572;6.578;2023-12-20T13:18:22;8.30;;;2.28;;
31676;SDS011;18385;51.572;6.578;2023-12-20T13:20:48;8.90;;;2.97;;
31676;SDS011;18385;51.572;6.578;2023-12-20T13:23:14;8.70;;;2.70;;
31676;SDS011;18385;51.572;6.578;2023-12-20T13:25:41;11.30;;;2.55;;
31676;SDS011;18385;51.572;6.578;2023-12-20T13:28:07;7.03;;;2.33;;
31676;SDS011;18385;51.572;6.578;2023-12-20T13:30:33;12.02;;;2.80;;
31676;SDS011;18385;51.572;6.578;2023-12-20T13:32:59;7.50;;;2.10;;
31676;SDS011;18385;51.572;6.578;2023-12-20T13:35:25;9.93;;;3.35;;
31676;SDS011;18385;51.572;6.578;2023-12-20T13:37:50;9.70;;;2.03;;
31676;SDS011;18385;51.572;6.578;2023-12-20T13:40:16;12.07;;;2.30;;
31676;SDS011;18385;51.572;6.578;2023-12-20T13:42:43;7.13;;;2.00;;
31676;SDS011;18385;51.572;6.578;2023-12-20T13:45:08;15.18;;;3.58;;
31676;SDS011;18385;51.572;6.578;2023-12-20T13:47:34;14.00;;;3.42;;
31676;SDS011;18385;51.572;6.578;2023-12-20T13:50:00;7.55;;;2.05;;
31676;SDS011;18385;51.572;6.578;2023-12-20T13:52:27;10.07;;;2.22;;
31676;SDS011;18385;51.572;6.578;2023-12-20T13:54:52;14.40;;;3.22;;
31676;SDS011;18385;51.572;6.578;2023-12-20T13:57:18;8.10;;;2.47;;
31676;SDS011;18385;51.572;6.578;2023-12-20T13:59:43;8.48;;;2.22;;
31676;SDS011;18385;51.572;6.578;2023-12-20T14:02:10;11.23;;;3.05;;
31676;SDS011;18385;51.572;6.578;2023-12-20T14:04:35;12.02;;;2.75;;
31676;SDS011;18385;51.572;6.578;2023-12-20T14:07:01;10.13;;;2.95;;
31676;SDS011;18385;51.572;6.578;2023-12-20T14:09:27;7.90;;;2.72;;
31676;SDS011;18385;51.572;6.578;2023-12-20T14:11:52;12.05;;;3.05;;
31676;SDS011;18385;51.572;6.578;2023-12-20T14:14:19;8.73;;;2.53;;
31676;SDS011;18385;51.572;6.578;2023-12-20T14:16:45;13.93;;;2.83;;
31676;SDS011;18385;51.572;6.578;2023-12-20T14:19:11;13.55;;;3.97;;
31676;SDS011;18385;51.572;6.578;2023-12-20T14:21:37;8.88;;;2.35;;
31676;SDS011;18385;51.572;6.578;2023-12-20T14:24:03;13.57;;;2.85;;
31676;SDS011;18385;51.572;6.578;2023-12-20T14:26:29;11.43;;;3.17;;
31676;SDS011;18385;51.572;6.578;2023-12-20T14:28:56;12.10;;;3.85;;
31676;SDS011;18385;51.572;6.578;2023-12-20T14:31:21;7.75;;;2.85;;
31676;SDS011;18385;51.572;6.578;2023-12-20T14:33:49;11.82;;;3.13;;
31676;SDS011;18385;51.572;6.578;2023-12-20T14:36:16;7.50;;;2.22;;
31676;SDS011;18385;51.572;6.578;2023-12-20T14:38:43;9.73;;;2.97;;